Time;durP1;ratioP1;P1;durP2;ratioP2;P2;SDS_P1;SDS_P2;PMS_P1;PMS_P2;Temp;Humidity;BMP_temperature;BMP_pressure;BME280_temperature;BME280_humidity;BME280_pressure;Samples;Min_cycle;Max_cycle;Signal;HPM_P1;HPM_P2
2022/12/04 00:02:13;;;;;;;31.00;25.47;;;2.60;99.90;;;;;;5095859;28;20264;-77
2022/12/04 00:04:40;;;;;;;27.37;23.53;;;2.60;99.90;;;;;;5093087;28;20221;-77
2022/12/04 00:07:05;;;;;;;28.33;23.80;;;2.60;99.90;;;;;;5073706;28;20530;-78
2022/12/04 00:09:31;;;;;;;28.17;20.93;;;2.70;99.90;;;;;;5071524;28;20178;-77
2022/12/04 00:11:57;;;;;;;30.30;19.90;;;2.70;99.90;;;;;;5071306;28;20301;-77
2022/12/04 00:14:23;;;;;;;25.40;18.20;;;2.80;99.90;;;;;;5072579;28;20216;-77
2022/12/04 00:16:49;;;;;;;25.90;16.03;;;2.80;99.90;;;;;;5072976;28;20181;-77
2022/12/04 00:19:15;;;;;;;23.40;15.37;;;2.80;99.90;;;;;;5081274;28;20767;-77
2022/12/04 00:21:41;;;;;;;25.93;15.73;;;2.80;99.90;;;;;;5095509;28;20675;-77
2022/12/04 00:24:06;;;;;;;29.47;16.90;;;2.70;99.90;;;;;;5092156;28;20210;-77
2022/12/04 00:26:32;;;;;;;29.07;15.73;;;2.70;99.90;;;;;;5092555;28;20184;-78
2022/12/04 00:28:58;;;;;;;28.10;17.43;;;2.70;99.90;;;;;;5094121;28;20175;-77
2022/12/04 00:31:27;;;;;;;27.83;17.77;;;2.60;99.90;;;;;;5104970;22;20267;-77
2022/12/04 00:33:53;;;;;;;28.07;18.37;;;2.70;99.90;;;;;;5104124;28;20200;-79
2022/12/04 00:36:21;;;;;;;29.50;17.10;;;2.70;99.90;;;;;;5095882;28;20187;-79
2022/12/04 00:38:47;;;;;;;26.07;17.23;;;2.70;99.90;;;;;;5105981;28;20179;-79
2022/12/04 00:41:16;;;;;;;28.07;16.67;;;2.70;99.90;;;;;;5084577;28;20212;-79
2022/12/04 00:43:42;;;;;;;29.00;17.47;;;2.70;99.90;;;;;;5093810;28;20184;-78
2022/12/04 00:46:08;;;;;;;24.87;16.77;;;2.70;99.90;;;;;;5093516;28;20182;-78
2022/12/04 00:48:34;;;;;;;20.77;15.27;;;2.70;99.90;;;;;;5093008;28;20645;-79
2022/12/04 00:51:04;;;;;;;24.37;16.97;;;2.70;99.90;;;;;;5099750;28;20197;-79
2022/12/04 00:53:31;;;;;;;26.60;18.63;;;2.70;99.90;;;;;;5092731;28;20305;-78
2022/12/04 00:55:57;;;;;;;29.90;18.83;;;2.70;99.90;;;;;;5103718;28;20180;-79
2022/12/04 00:58:23;;;;;;;26.70;19.87;;;2.60;99.90;;;;;;5107449;28;20187;-79
2022/12/04 01:00:49;;;;;;;29.53;21.20;;;2.60;99.90;;;;;;5096855;28;20202;-79
2022/12/04 01:03:14;;;;;;;25.73;19.50;;;2.70;99.90;;;;;;5072508;28;20556;-78
2022/12/04 01:05:42;;;;;;;25.73;19.83;;;2.70;99.90;;;;;;5073179;28;20177;-79
2022/12/04 01:08:10;;;;;;;25.30;17.37;;;2.80;99.90;;;;;;5071481;28;20226;-78
2022/12/04 01:10:40;;;;;;;19.17;11.97;;;2.70;99.90;;;;;;5073567;28;20201;-78
2022/12/04 01:13:06;;;;;;;19.47;14.73;;;2.70;99.90;;;;;;5073673;28;20209;-78
2022/12/04 01:15:32;;;;;;;20.73;13.00;;;2.70;99.90;;;;;;5071517;28;20830;-78
2022/12/04 01:17:58;;;;;;;28.40;16.03;;;2.70;99.90;;;;;;5071771;28;20748;-79
2022/12/04 01:20:24;;;;;;;18.30;14.40;;;2.70;99.90;;;;;;5072128;28;20216;-78
2022/12/04 01:22:50;;;;;;;14.87;12.63;;;2.70;99.90;;;;;;5072738;28;20182;-78
2022/12/04 01:25:15;;;;;;;25.47;16.80;;;2.70;99.90;;;;;;5072592;28;20180;-78
2022/12/04 01:27:41;;;;;;;23.60;16.63;;;2.60;99.90;;;;;;5073327;28;20204;-79
2022/12/04 01:30:07;;;;;;;32.20;21.23;;;2.60;99.90;;;;;;5091262;28;20601;-78
2022/12/04 01:32:33;;;;;;;33.17;23.73;;;2.60;99.90;;;;;;5089147;28;20217;-78
2022/12/04 01:34:59;;;;;;;31.13;22.90;;;2.70;99.90;;;;;;5071032;28;20181;-79
2022/12/04 01:37:24;;;;;;;30.20;20.97;;;2.70;99.90;;;;;;5070623;28;20190;-78
2022/12/04 01:39:50;;;;;;;28.03;19.97;;;2.70;99.90;;;;;;5072499;28;20181;-79
2022/12/04 01:42:16;;;;;;;31.80;22.63;;;2.70;99.90;;;;;;5071550;28;20211;-79
2022/12/04 01:45:23;;;;;;;28.47;22.10;;;2.70;99.90;;;;;;5071259;28;20180;-78
2022/12/04 01:47:52;;;;;;;31.23;22.43;;;2.70;99.90;;;;;;5071212;28;20264;-78
2022/12/04 01:50:17;;;;;;;33.90;23.30;;;2.80;99.90;;;;;;5072892;28;20178;-78
2022/12/04 01:52:43;;;;;;;33.63;22.57;;;2.80;99.90;;;;;;5075134;28;20214;-78
2022/12/04 01:55:09;;;;;;;28.70;20.63;;;2.80;99.90;;;;;;5077766;28;20182;-79
2022/12/04 01:57:35;;;;;;;33.17;22.40;;;2.90;99.90;;;;;;5096716;28;20184;-79
2022/12/04 02:00:07;;;;;;;32.00;20.00;;;2.90;99.90;;;;;;5074658;28;20192;-79
2022/12/04 02:02:45;;;;;;;21.33;14.67;;;2.90;99.90;;;;;;5075123;28;20174;-78
2022/12/04 02:05:14;;;;;;;17.70;12.77;;;2.90;99.90;;;;;;5074948;28;20188;-78
2022/12/04 02:07:42;;;;;;;36.10;20.47;;;2.80;99.90;;;;;;5074237;28;20205;-80
2022/12/04 02:10:09;;;;;;;24.00;14.70;;;2.80;99.90;;;;;;5082901;28;20239;-80
2022/12/04 02:12:41;;;;;;;17.33;12.20;;;2.80;99.90;;;;;;5107857;28;20202;-79
2022/12/04 02:15:29;;;;;;;25.57;16.43;;;2.80;99.90;;;;;;5101841;28;20182;-79
2022/12/04 02:18:17;;;;;;;31.27;17.23;;;2.80;99.90;;;;;;5093811;28;20187;-79
2022/12/04 02:21:15;;;;;;;27.73;18.00;;;2.80;99.90;;;;;;5095285;28;20204;-79
2022/12/04 02:24:17;;;;;;;30.10;17.10;;;2.80;99.90;;;;;;5089210;28;20189;-79
2022/12/04 02:27:23;;;;;;;25.40;18.33;;;2.80;99.90;;;;;;5075374;28;20348;-79
2022/12/04 02:30:05;;;;;;;26.23;17.03;;;2.80;99.90;;;;;;5073963;28;20181;-79
2022/12/04 02:32:44;;;;;;;25.40;17.67;;;2.80;99.90;;;;;;5074764;28;20197;-79
2022/12/04 02:35:49;;;;;;;30.07;19.67;;;2.80;99.90;;;;;;5074177;28;20213;-78
2022/12/04 02:38:25;;;;;;;24.67;17.80;;;2.80;99.90;;;;;;5089764;28;20189;-79
2022/12/04 02:41:03;;;;;;;26.70;18.10;;;2.80;99.90;;;;;;5094104;28;20201;-79
2022/12/04 02:43:43;;;;;;;28.27;18.37;;;2.80;99.90;;;;;;5074983;28;20184;-80
2022/12/04 02:46:24;;;;;;;28.70;17.70;;;2.80;99.90;;;;;;5076261;28;20196;-79
2022/12/04 02:48:55;;;;;;;26.63;16.20;;;2.90;99.90;;;;;;5074019;28;20213;-80
2022/12/04 02:51:24;;;;;;;23.60;16.33;;;2.80;99.90;;;;;;5081647;28;20196;-80
2022/12/04 02:54:02;;;;;;;24.00;14.47;;;2.80;99.90;;;;;;5095650;28;20273;-79
2022/12/04 02:56:31;;;;;;;26.70;18.17;;;2.80;99.90;;;;;;5100762;28;20192;-80
2022/12/04 02:59:05;;;;;;;26.70;18.47;;;2.80;99.90;;;;;;5114672;28;20176;-79
2022/12/04 03:01:36;;;;;;;33.70;21.27;;;2.80;99.90;;;;;;5114111;28;20722;-80
2022/12/04 03:04:16;;;;;;;30.37;18.00;;;2.80;99.90;;;;;;5087455;28;20184;-80
2022/12/04 03:06:46;;;;;;;28.63;18.23;;;2.80;99.90;;;;;;5073228;28;20233;-80
2022/12/04 03:09:14;;;;;;;27.90;17.13;;;2.80;99.90;;;;;;5073175;28;20182;-79
2022/12/04 03:11:48;;;;;;;28.53;16.63;;;2.80;99.90;;;;;;5074498;28;20675;-79
2022/12/04 03:14:26;;;;;;;29.10;15.90;;;2.80;99.90;;;;;;5074262;28;20209;-79
2022/12/04 03:16:58;;;;;;;24.60;15.90;;;2.80;99.90;;;;;;5074494;28;20173;-79
2022/12/04 03:19:35;;;;;;;26.93;17.17;;;2.80;99.90;;;;;;5075444;28;20700;-77
2022/12/04 03:22:07;;;;;;;24.50;15.07;;;2.80;99.90;;;;;;5072910;28;20271;-80
2022/12/04 03:24:39;;;;;;;30.70;17.37;;;2.80;99.90;;;;;;5073566;28;20189;-78
2022/12/04 03:27:24;;;;;;;27.67;16.87;;;2.70;99.90;;;;;;5081792;28;20212;-78
2022/12/04 03:29:55;;;;;;;23.17;15.23;;;2.80;99.90;;;;;;5093625;28;20279;-78
2022/12/04 03:32:29;;;;;;;24.80;16.03;;;2.80;99.90;;;;;;5093335;28;20241;-77
2022/12/04 03:35:05;;;;;;;26.67;17.13;;;2.70;99.90;;;;;;5095039;28;20186;-78
2022/12/04 03:37:50;;;;;;;22.07;13.50;;;2.70;99.90;;;;;;5080072;28;20173;-78
2022/12/04 03:40:32;;;;;;;28.20;17.77;;;2.70;99.90;;;;;;5074014;28;20184;-78
2022/12/04 03:43:01;;;;;;;24.83;17.50;;;2.70;99.90;;;;;;5072478;28;20195;-78
2022/12/04 03:45:42;;;;;;;26.17;18.47;;;2.70;99.90;;;;;;5072501;28;20774;-80
2022/12/04 03:48:20;;;;;;;21.40;15.77;;;2.70;99.90;;;;;;5072842;28;20180;-78
2022/12/04 03:51:12;;;;;;;26.37;17.07;;;2.70;99.90;;;;;;5072721;28;20216;-77
2022/12/04 03:53:49;;;;;;;27.70;16.93;;;2.80;99.90;;;;;;5062860;28;20225;-78
2022/12/04 03:56:26;;;;;;;24.00;16.97;;;2.80;99.90;;;;;;5072797;28;20177;-78
2022/12/04 03:58:57;;;;;;;25.10;15.20;;;2.80;99.90;;;;;;5091846;28;20709;-78
2022/12/04 04:01:29;;;;;;;23.23;15.37;;;2.90;99.90;;;;;;5093012;28;20579;-78
2022/12/04 04:03:57;;;;;;;24.70;15.53;;;2.90;99.90;;;;;;5091590;28;20199;-78
2022/12/04 04:06:32;;;;;;;25.47;17.37;;;2.80;99.90;;;;;;5089341;28;20188;-78
2022/12/04 04:09:03;;;;;;;28.17;16.63;;;2.80;99.90;;;;;;5071148;28;20193;-78
2022/12/04 04:11:44;;;;;;;19.63;13.30;;;2.90;99.90;;;;;;5072879;28;20318;-78
2022/12/04 04:25:51;;;;;;;23.10;15.93;;;2.70;99.90;;;;;;5091684;28;20199;-78
2022/12/04 04:28:39;;;;;;;18.77;16.53;;;2.70;99.90;;;;;;5085306;28;20184;-79
2022/12/04 04:31:30;;;;;;;24.40;18.80;;;2.70;99.90;;;;;;5076976;28;20213;-79
2022/12/04 04:34:21;;;;;;;28.03;19.70;;;2.80;99.90;;;;;;5074789;28;20211;-78
2022/12/04 04:36:57;;;;;;;29.57;19.90;;;2.80;99.90;;;;;;5071816;28;20183;-79
2022/12/04 04:39:38;;;;;;;23.80;18.10;;;2.80;99.90;;;;;;5073766;28;20212;-78
2022/12/04 04:42:13;;;;;;;26.23;18.87;;;2.80;99.90;;;;;;5073194;28;20206;-78
2022/12/04 04:44:46;;;;;;;29.23;18.43;;;2.80;99.90;;;;;;5072357;28;20229;-79
2022/12/04 04:47:20;;;;;;;26.53;18.37;;;2.80;99.90;;;;;;5080482;28;20262;-79
2022/12/04 04:49:49;;;;;;;24.80;17.60;;;2.90;99.90;;;;;;5086949;28;20184;-79
2022/12/04 04:52:18;;;;;;;24.40;16.47;;;2.80;99.90;;;;;;5072754;28;20285;-79
2022/12/04 04:54:45;;;;;;;24.13;15.63;;;2.90;99.90;;;;;;5073232;28;20220;-78
2022/12/04 04:57:11;;;;;;;27.87;17.07;;;2.90;99.90;;;;;;5090468;28;20176;-78
2022/12/04 04:59:37;;;;;;;23.83;15.63;;;2.90;99.90;;;;;;5110170;28;20201;-79
2022/12/04 05:02:03;;;;;;;27.10;16.63;;;2.90;99.90;;;;;;5079874;28;20248;-79
2022/12/04 05:04:29;;;;;;;20.13;13.83;;;2.90;99.90;;;;;;5072795;28;20231;-78
2022/12/04 05:06:55;;;;;;;21.77;15.07;;;2.80;99.90;;;;;;5071956;28;20181;-80
2022/12/04 05:09:20;;;;;;;23.50;17.00;;;2.80;99.90;;;;;;5072465;28;20664;-80
2022/12/04 05:11:46;;;;;;;25.17;20.23;;;2.80;99.90;;;;;;5070924;28;20200;-79
2022/12/04 05:14:12;;;;;;;28.77;24.83;;;2.80;99.90;;;;;;5071437;28;20215;-79
2022/12/04 05:16:39;;;;;;;33.73;25.57;;;2.70;99.90;;;;;;5070856;28;20177;-79
2022/12/04 05:21:55;;;;;;;31.30;26.20;;;2.80;99.90;;;;;;5063175;28;20210;-78
2022/12/04 05:24:21;;;;;;;32.10;26.67;;;2.80;99.90;;;;;;5092366;28;20180;-79
2022/12/04 05:26:47;;;;;;;28.80;25.10;;;2.80;99.90;;;;;;5100136;28;20196;-79
2022/12/04 05:29:13;;;;;;;30.33;26.00;;;2.80;99.90;;;;;;5081397;28;20215;-78
2022/12/04 05:31:38;;;;;;;28.67;22.47;;;2.80;99.90;;;;;;5074796;28;20260;-78
2022/12/04 05:34:04;;;;;;;28.70;24.83;;;2.80;99.90;;;;;;5075522;28;20219;-78
2022/12/04 05:36:30;;;;;;;30.23;24.23;;;2.80;99.90;;;;;;5075953;28;20615;-78
2022/12/04 05:38:55;;;;;;;27.20;22.30;;;2.90;99.90;;;;;;5076719;28;20171;-79
2022/12/04 05:41:22;;;;;;;30.17;22.70;;;2.90;99.90;;;;;;5074998;28;20203;-79
2022/12/04 05:43:47;;;;;;;27.20;21.90;;;2.90;99.90;;;;;;5076374;28;20177;-78
2022/12/04 05:46:13;;;;;;;25.73;22.03;;;2.90;99.90;;;;;;5077275;28;20276;-78
2022/12/04 05:48:39;;;;;;;28.03;23.77;;;2.90;99.90;;;;;;5084702;28;20567;-79
2022/12/04 05:51:09;;;;;;;30.40;24.30;;;2.90;99.90;;;;;;5083289;28;20204;-78
2022/12/04 05:53:36;;;;;;;27.43;20.37;;;2.90;99.90;;;;;;5076691;28;20764;-79
2022/12/04 05:56:03;;;;;;;25.47;18.80;;;2.90;99.90;;;;;;5077528;28;20206;-78
2022/12/04 05:58:29;;;;;;;25.37;17.10;;;2.90;99.90;;;;;;5075025;28;20184;-78
2022/12/04 06:00:55;;;;;;;24.07;17.87;;;2.90;99.90;;;;;;5087439;28;20181;-78
2022/12/04 06:03:21;;;;;;;22.10;17.43;;;2.90;99.90;;;;;;5095461;28;20222;-79
2022/12/04 06:05:47;;;;;;;24.63;18.47;;;2.80;99.90;;;;;;5087236;28;20571;-78
2022/12/04 06:08:13;;;;;;;24.07;16.00;;;2.80;99.90;;;;;;5080101;28;20184;-79
2022/12/04 06:10:39;;;;;;;20.80;14.23;;;2.90;99.90;;;;;;5097153;28;20207;-80
2022/12/04 06:13:05;;;;;;;26.60;16.63;;;2.80;99.90;;;;;;5097687;28;20207;-79
2022/12/04 06:15:36;;;;;;;24.53;15.97;;;2.80;99.90;;;;;;5097612;28;20183;-79
2022/12/04 06:18:02;;;;;;;19.70;15.20;;;2.80;99.90;;;;;;5092508;28;20597;-78
2022/12/04 06:20:28;;;;;;;26.70;18.30;;;2.90;99.90;;;;;;5095227;28;20205;-77
2022/12/04 06:22:54;;;;;;;23.13;16.77;;;2.90;99.90;;;;;;5091709;28;20183;-78
2022/12/04 06:25:20;;;;;;;22.90;15.43;;;3.00;99.90;;;;;;5074644;28;20269;-79
2022/12/04 06:27:46;;;;;;;19.97;13.43;;;3.00;99.90;;;;;;5075174;28;20187;-78
2022/12/04 06:30:12;;;;;;;20.97;14.63;;;3.00;99.90;;;;;;5074446;28;20574;-78
2022/12/04 06:32:37;;;;;;;22.77;14.33;;;3.00;99.90;;;;;;5075927;28;20280;-78
2022/12/04 06:35:05;;;;;;;20.23;13.67;;;3.00;99.90;;;;;;5085381;28;20185;-76
2022/12/04 06:37:32;;;;;;;22.60;15.77;;;3.00;99.90;;;;;;5090649;28;20245;-76
2022/12/04 06:39:58;;;;;;;20.00;14.33;;;3.00;99.90;;;;;;5109998;28;20192;-78
2022/12/04 06:42:24;;;;;;;19.93;13.87;;;3.00;99.90;;;;;;5096988;28;20204;-79
2022/12/04 06:44:50;;;;;;;20.83;13.90;;;2.90;99.90;;;;;;5096909;28;20280;-79
2022/12/04 06:47:16;;;;;;;19.90;13.53;;;3.00;99.90;;;;;;5095026;28;20189;-78
2022/12/04 06:49:41;;;;;;;20.93;14.70;;;3.00;99.90;;;;;;5079733;28;20219;-78
2022/12/04 06:52:07;;;;;;;23.33;14.80;;;2.90;99.90;;;;;;5075526;28;20209;-79
2022/12/04 06:54:33;;;;;;;21.40;14.50;;;2.90;99.90;;;;;;5073247;28;20227;-74
2022/12/04 06:56:59;;;;;;;22.40;15.60;;;3.00;99.90;;;;;;5072489;28;20233;-74
2022/12/04 06:59:25;;;;;;;21.90;15.73;;;3.00;99.90;;;;;;5078919;28;20264;-74
2022/12/04 07:01:50;;;;;;;20.60;14.73;;;3.10;99.90;;;;;;5078210;28;20575;-80
2022/12/04 07:04:16;;;;;;;18.67;13.90;;;3.20;99.90;;;;;;5074824;28;20191;-80
2022/12/04 07:06:42;;;;;;;21.83;14.70;;;3.20;99.90;;;;;;5074988;28;20269;-80
2022/12/04 07:09:14;;;;;;;19.90;14.70;;;3.20;99.90;;;;;;5093545;28;20202;-81
2022/12/04 07:11:41;;;;;;;21.33;15.53;;;3.20;99.90;;;;;;5096616;28;20301;-81
2022/12/04 07:14:08;;;;;;;23.27;15.37;;;3.20;99.90;;;;;;5096107;28;20692;-81
2022/12/04 07:16:33;;;;;;;24.23;15.40;;;3.10;99.90;;;;;;5095702;28;20176;-80
2022/12/04 07:18:59;;;;;;;20.57;14.60;;;3.10;99.90;;;;;;5086152;28;20204;-80
2022/12/04 07:21:28;;;;;;;21.83;15.77;;;3.00;99.90;;;;;;5073241;28;20200;-78
2022/12/04 07:23:58;;;;;;;23.43;16.47;;;3.10;99.90;;;;;;5072674;28;20711;-79
2022/12/04 07:26:25;;;;;;;28.40;17.77;;;3.10;99.90;;;;;;5074414;28;20351;-79
2022/12/04 07:28:52;;;;;;;22.40;15.80;;;3.10;99.90;;;;;;5080227;28;20211;-78
2022/12/04 07:31:21;;;;;;;24.33;15.27;;;3.10;99.90;;;;;;5092890;28;20205;-79
2022/12/04 07:33:47;;;;;;;21.23;15.13;;;3.20;99.90;;;;;;5093020;28;20229;-79
2022/12/04 07:36:15;;;;;;;25.67;15.50;;;3.20;99.90;;;;;;5093714;28;20278;-78
2022/12/04 07:38:42;;;;;;;24.80;16.63;;;3.30;99.90;;;;;;5086498;28;20181;-78
2022/12/04 07:41:10;;;;;;;25.23;16.23;;;3.30;99.90;;;;;;5072927;28;20200;-78
2022/12/04 07:43:38;;;;;;;23.40;17.27;;;3.30;99.90;;;;;;5075543;28;20184;-79
2022/12/04 07:46:10;;;;;;;22.47;15.43;;;3.30;99.90;;;;;;5105376;28;20223;-77
2022/12/04 07:48:36;;;;;;;20.50;13.40;;;3.20;99.90;;;;;;5098877;28;20177;-78
2022/12/04 07:51:03;;;;;;;20.90;14.37;;;3.20;99.90;;;;;;5095609;28;20698;-78
2022/12/04 07:53:29;;;;;;;26.03;15.83;;;3.20;99.90;;;;;;5107621;28;20697;-78
2022/12/04 07:55:55;;;;;;;22.23;15.07;;;3.10;99.90;;;;;;5095844;28;20191;-80
2022/12/04 07:58:21;;;;;;;26.73;16.90;;;3.10;99.90;;;;;;5093076;28;20183;-79
2022/12/04 08:00:47;;;;;;;21.70;15.47;;;3.10;99.90;;;;;;5097503;28;20208;-77
2022/12/04 08:03:13;;;;;;;21.53;14.27;;;3.10;99.90;;;;;;5101049;28;20195;-79
2022/12/04 08:05:39;;;;;;;23.27;16.27;;;3.10;99.90;;;;;;5097094;28;20612;-78
2022/12/04 08:08:05;;;;;;;24.37;16.70;;;3.10;99.90;;;;;;5102282;28;20187;-78
2022/12/04 08:10:30;;;;;;;28.07;17.90;;;3.00;99.90;;;;;;5095145;28;20196;-80
2022/12/04 08:12:56;;;;;;;26.43;19.83;;;3.00;99.90;;;;;;5104384;28;20216;-79
2022/12/04 08:15:22;;;;;;;20.17;17.43;;;3.10;99.90;;;;;;5099712;28;20188;-79
2022/12/04 08:17:48;;;;;;;25.07;19.33;;;3.10;99.90;;;;;;5097427;28;20771;-79
2022/12/04 08:20:14;;;;;;;22.30;19.90;;;3.10;99.90;;;;;;5079257;28;20261;-80
2022/12/04 08:22:39;;;;;;;25.67;21.37;;;3.10;99.90;;;;;;5077366;28;20183;-79
2022/12/04 08:25:05;;;;;;;19.77;17.90;;;3.10;99.90;;;;;;5093498;28;20221;-79
2022/12/04 08:27:32;;;;;;;25.23;20.83;;;3.10;99.90;;;;;;5089380;28;20187;-79
2022/12/04 08:29:57;;;;;;;28.37;20.97;;;3.10;99.90;;;;;;5055506;28;20189;-79
2022/12/04 08:32:23;;;;;;;30.17;22.30;;;3.10;99.90;;;;;;5090028;28;20586;-79
2022/12/04 08:34:50;;;;;;;35.17;25.13;;;3.10;99.90;;;;;;5093212;28;20251;-79
2022/12/04 08:37:16;;;;;;;26.60;23.70;;;3.10;99.90;;;;;;5092210;28;20181;-79
2022/12/04 08:39:42;;;;;;;32.77;27.10;;;3.00;99.90;;;;;;5087474;28;20235;-80
2022/12/04 08:42:07;;;;;;;29.60;24.67;;;3.10;99.90;;;;;;5079672;28;20200;-79
2022/12/04 08:44:33;;;;;;;27.00;22.67;;;3.10;99.90;;;;;;5074758;28;20220;-79
2022/12/04 08:46:59;;;;;;;28.83;24.00;;;3.10;99.90;;;;;;5071392;28;20737;-79
2022/12/04 08:49:25;;;;;;;26.40;22.70;;;3.20;99.90;;;;;;5083788;28;20169;-80
2022/12/04 08:51:50;;;;;;;30.13;22.27;;;3.20;99.90;;;;;;5091985;28;20237;-80
2022/12/04 08:54:16;;;;;;;25.90;20.03;;;3.20;99.90;;;;;;5093035;28;20242;-80
2022/12/04 08:56:43;;;;;;;24.20;16.87;;;3.30;99.90;;;;;;5097393;28;20180;-80
2022/12/04 08:59:11;;;;;;;23.90;16.27;;;3.30;99.90;;;;;;5091736;28;20207;-80
2022/12/04 09:01:36;;;;;;;43.03;25.77;;;3.30;99.90;;;;;;5077533;28;20207;-80
2022/12/04 09:04:02;;;;;;;30.13;18.93;;;3.40;99.90;;;;;;5094773;28;20183;-79
2022/12/04 09:06:28;;;;;;;26.23;14.90;;;3.30;99.90;;;;;;5094070;28;20218;-80
2022/12/04 09:08:55;;;;;;;13.67;11.40;;;3.30;99.90;;;;;;5087267;28;20177;-79
2022/12/04 09:11:23;;;;;;;21.53;14.40;;;3.30;99.90;;;;;;5085841;28;20196;-80
2022/12/04 09:13:49;;;;;;;32.00;19.80;;;3.20;99.90;;;;;;5074031;28;20207;-80
2022/12/04 09:16:18;;;;;;;27.93;17.60;;;3.20;99.90;;;;;;5095554;28;20241;-80
2022/12/04 09:18:44;;;;;;;24.13;14.53;;;3.20;99.90;;;;;;5093085;28;20183;-81
2022/12/04 09:21:12;;;;;;;24.37;14.33;;;3.30;99.90;;;;;;5100298;28;20219;-80
2022/12/04 09:23:38;;;;;;;23.10;15.63;;;3.40;99.90;;;;;;5104205;28;20652;-78
2022/12/04 09:26:14;;;;;;;24.17;14.10;;;3.40;99.90;;;;;;5108848;28;20191;-80
2022/12/04 09:28:45;;;;;;;21.30;13.87;;;3.40;99.90;;;;;;5096128;28;20387;-81
2022/12/04 09:31:11;;;;;;;27.00;15.90;;;3.40;99.90;;;;;;5105881;28;20196;-82
2022/12/04 09:33:37;;;;;;;23.80;14.87;;;3.40;99.90;;;;;;5108517;28;20587;-82
2022/12/04 09:36:03;;;;;;;24.90;15.30;;;3.40;99.90;;;;;;5109281;28;20207;-80
2022/12/04 09:38:29;;;;;;;23.60;15.83;;;3.50;99.90;;;;;;5096649;28;20209;-82
2022/12/04 09:41:07;;;;;;;23.60;14.27;;;3.50;99.90;;;;;;5086014;28;20202;-82
2022/12/04 09:43:56;;;;;;;18.97;12.87;;;3.60;99.90;;;;;;5073054;28;20214;-79
2022/12/04 09:46:34;;;;;;;21.57;14.23;;;3.60;99.90;;;;;;5073758;28;20184;-79
2022/12/04 09:49:05;;;;;;;20.43;13.47;;;3.60;99.90;;;;;;5078171;28;20180;-81
2022/12/04 09:51:33;;;;;;;23.70;14.23;;;3.60;99.90;;;;;;5092876;28;20219;-81
2022/12/04 09:54:13;;;;;;;21.23;14.03;;;3.60;99.90;;;;;;5094524;28;20211;-80
2022/12/04 09:56:42;;;;;;;21.10;14.50;;;3.60;99.90;;;;;;5093073;28;20176;-79
2022/12/04 09:59:15;;;;;;;24.07;14.67;;;3.60;99.90;;;;;;5088862;28;20264;-80
2022/12/04 10:01:48;;;;;;;21.80;14.20;;;3.60;99.90;;;;;;5074284;28;20199;-80
2022/12/04 10:04:16;;;;;;;18.97;13.20;;;3.50;99.90;;;;;;5072159;28;20549;-81
2022/12/04 10:06:56;;;;;;;21.27;14.57;;;3.50;99.90;;;;;;5072434;28;20182;-81
2022/12/04 10:09:35;;;;;;;24.80;14.10;;;3.60;99.90;;;;;;5072619;28;20184;-80
2022/12/04 10:12:19;;;;;;;22.80;15.00;;;3.60;99.90;;;;;;5073314;28;20581;-84
2022/12/04 10:15:21;;;;;;;23.00;15.53;;;3.70;99.90;;;;;;5077019;28;20256;-80
2022/12/04 10:17:49;;;;;;;20.40;14.63;;;3.80;99.90;;;;;;5078095;28;20589;-79
2022/12/04 10:20:35;;;;;;;22.97;15.70;;;3.90;99.90;;;;;;5090633;28;20176;-79
2022/12/04 10:23:01;;;;;;;23.03;17.07;;;4.00;99.90;;;;;;5109404;28;20188;-82
2022/12/04 10:25:29;;;;;;;21.43;18.27;;;4.00;99.90;;;;;;5099936;28;20181;-81
2022/12/04 10:28:24;;;;;;;21.80;19.33;;;4.10;99.90;;;;;;5097379;28;20181;-79
2022/12/04 10:30:53;;;;;;;25.33;22.73;;;4.00;99.90;;;;;;5093658;28;20293;-79
2022/12/04 10:33:27;;;;;;;24.53;20.87;;;4.00;99.90;;;;;;5084625;28;20219;-80
2022/12/04 10:35:53;;;;;;;25.23;18.67;;;3.90;99.90;;;;;;5085827;28;20177;-80
2022/12/04 10:38:50;;;;;;;23.07;17.87;;;3.90;99.90;;;;;;5086567;28;20183;-79
2022/12/04 10:41:36;;;;;;;27.50;19.03;;;3.90;99.90;;;;;;5090020;28;20205;-80
2022/12/04 10:44:03;;;;;;;28.03;19.27;;;3.90;99.90;;;;;;5079322;28;20182;-80
2022/12/04 10:46:32;;;;;;;30.37;22.67;;;4.00;99.90;;;;;;5093397;28;20197;-82
2022/12/04 10:49:08;;;;;;;30.77;23.13;;;4.00;99.90;;;;;;5101694;28;20176;-83
2022/12/04 10:51:39;;;;;;;26.53;23.17;;;4.10;99.90;;;;;;5113789;28;20203;-82
2022/12/04 10:54:47;;;;;;;27.73;24.83;;;4.10;99.90;;;;;;5099176;28;20216;-79
2022/12/04 10:57:13;;;;;;;26.80;22.07;;;4.00;99.90;;;;;;5098809;28;20173;-81
2022/12/04 10:59:53;;;;;;;25.80;19.60;;;3.80;99.90;;;;;;5087557;28;20201;-80
2022/12/04 11:02:21;;;;;;;22.80;17.80;;;3.80;99.90;;;;;;5077918;28;20554;-82
2022/12/04 11:04:56;;;;;;;26.27;18.10;;;3.80;99.90;;;;;;5076642;28;20216;-80
2022/12/04 11:07:34;;;;;;;26.70;19.43;;;3.80;99.90;;;;;;5075109;28;20185;-81
2022/12/04 11:10:05;;;;;;;28.27;18.13;;;3.90;99.90;;;;;;5102025;28;20533;-80
2022/12/04 11:12:32;;;;;;;26.27;19.40;;;3.90;99.90;;;;;;5096959;28;20204;-81
2022/12/04 11:15:05;;;;;;;23.70;18.33;;;4.00;99.90;;;;;;5100093;28;20218;-80
2022/12/04 11:17:31;;;;;;;28.77;23.27;;;4.00;99.90;;;;;;5099488;28;20181;-80
2022/12/04 11:20:07;;;;;;;29.47;26.67;;;4.10;99.90;;;;;;5088201;28;20173;-80
2022/12/04 11:22:45;;;;;;;30.00;26.93;;;4.20;99.90;;;;;;5087512;28;20273;-81
2022/12/04 11:25:16;;;;;;;32.70;29.23;;;4.30;99.90;;;;;;5078376;28;20190;-82
2022/12/04 11:27:46;;;;;;;28.70;24.70;;;4.40;99.90;;;;;;5081581;28;20531;-81
2022/12/04 11:30:18;;;;;;;26.50;20.97;;;4.40;99.90;;;;;;5088102;28;20201;-80
2022/12/04 11:32:45;;;;;;;24.13;18.03;;;4.40;99.90;;;;;;5094668;28;20181;-83
2022/12/04 11:35:19;;;;;;;22.77;15.70;;;4.40;99.90;;;;;;5101604;28;20161;-83
2022/12/04 11:38:12;;;;;;;23.70;15.27;;;4.40;99.90;;;;;;5101968;28;20183;-82
2022/12/04 11:40:38;;;;;;;22.47;14.70;;;4.40;99.90;;;;;;5081588;28;20197;-81
2022/12/04 11:43:09;;;;;;;21.53;14.63;;;4.40;99.90;;;;;;5076672;28;20184;-81
2022/12/04 11:45:35;;;;;;;20.60;14.03;;;4.30;99.90;;;;;;5079132;28;20189;-82
2022/12/04 11:48:12;;;;;;;19.33;13.57;;;4.30;99.90;;;;;;5079367;28;20185;-82
2022/12/04 11:50:48;;;;;;;21.03;14.67;;;4.40;99.90;;;;;;5090860;28;20204;-82
2022/12/04 11:53:23;;;;;;;24.53;16.70;;;4.40;99.90;;;;;;5095484;28;20529;-82
2022/12/04 11:56:15;;;;;;;22.10;15.50;;;4.40;99.90;;;;;;5097424;28;20183;-83
2022/12/04 11:58:52;;;;;;;22.43;14.67;;;4.40;99.90;;;;;;5101796;28;20556;-83
2022/12/04 12:01:21;;;;;;;23.70;15.37;;;4.40;99.90;;;;;;5077294;28;20205;-83
2022/12/04 12:04:18;;;;;;;26.13;15.73;;;4.40;99.90;;;;;;5075581;28;20211;-81
2022/12/04 12:07:25;;;;;;;25.80;15.00;;;4.40;99.90;;;;;;5068425;28;20513;-80
2022/12/04 12:09:58;;;;;;;20.53;14.67;;;4.40;99.90;;;;;;5070938;28;20187;-80
2022/12/04 12:12:44;;;;;;;26.20;15.80;;;4.50;99.90;;;;;;5091591;28;20579;-76
2022/12/04 12:15:24;;;;;;;22.23;15.77;;;4.50;99.90;;;;;;5091636;28;20347;-76
2022/12/04 12:18:03;;;;;;;21.67;16.53;;;4.50;99.90;;;;;;5092200;28;20195;-77
2022/12/04 12:20:44;;;;;;;21.80;16.87;;;4.60;99.90;;;;;;5079387;28;20254;-79
2022/12/04 12:23:32;;;;;;;27.57;19.43;;;4.60;99.90;;;;;;5073007;28;20542;-78
2022/12/04 12:26:11;;;;;;;23.10;19.87;;;4.60;99.90;;;;;;5074029;28;20228;-79
2022/12/04 12:28:55;;;;;;;25.87;18.23;;;4.60;99.90;;;;;;5072100;28;20213;-78
2022/12/04 12:31:32;;;;;;;24.80;18.60;;;4.60;99.90;;;;;;5087425;28;20304;-76
2022/12/04 12:34:15;;;;;;;26.23;19.60;;;4.60;99.90;;;;;;5116135;28;20197;-76
2022/12/04 12:36:44;;;;;;;26.27;21.87;;;4.60;99.90;;;;;;5112747;28;20197;-77
2022/12/04 12:39:39;;;;;;;29.80;23.10;;;4.50;99.90;;;;;;5099792;28;20184;-76
2022/12/04 12:42:13;;;;;;;23.37;17.60;;;4.60;99.90;;;;;;5064899;28;20581;-77
2022/12/04 12:44:58;;;;;;;26.83;17.87;;;4.60;99.90;;;;;;5074795;28;20325;-76
2022/12/04 12:47:29;;;;;;;24.93;16.67;;;4.50;99.90;;;;;;5065167;28;20201;-76
2022/12/04 12:50:18;;;;;;;26.67;15.73;;;4.50;99.90;;;;;;5069299;28;20224;-76
2022/12/04 12:53:20;;;;;;;25.40;15.03;;;4.40;99.90;;;;;;5073035;28;20262;-76
2022/12/04 12:55:53;;;;;;;24.20;17.03;;;4.40;99.90;;;;;;5025371;28;20659;-76
2022/12/04 12:58:44;;;;;;;26.13;21.63;;;4.50;99.90;;;;;;5053900;28;20189;-76
2022/12/04 13:01:13;;;;;;;28.07;20.10;;;4.50;99.90;;;;;;5071334;28;20197;-76
2022/12/04 13:03:54;;;;;;;22.60;15.47;;;4.50;99.90;;;;;;5074025;28;20199;-76
2022/12/04 13:06:40;;;;;;;22.50;15.23;;;4.50;99.90;;;;;;5071001;28;20228;-76
2022/12/04 13:09:28;;;;;;;20.60;14.60;;;4.50;99.90;;;;;;5076126;28;20188;-75
2022/12/04 13:12:11;;;;;;;20.90;14.57;;;4.50;99.90;;;;;;5090878;28;20205;-71
2022/12/04 13:14:37;;;;;;;21.33;15.00;;;4.60;99.90;;;;;;5089734;28;20211;-71